createdAt,value
2017-09-15T00:00:31.795Z,0.00
2017-09-15T00:01:31.792Z,0.00
2017-09-15T00:02:31.789Z,0.00
2017-09-15T00:03:31.783Z,0.00
2017-09-15T00:04:31.785Z,0.00
2017-09-15T00:05:31.782Z,0.00
2017-09-15T00:06:31.779Z,0.00
2017-09-15T00:07:31.774Z,0.00
2017-09-15T00:08:31.772Z,0.00
2017-09-15T00:09:31.768Z,0.00
2017-09-15T00:10:31.765Z,0.00
2017-09-15T00:11:31.760Z,0.00
2017-09-15T00:12:31.753Z,0.00
2017-09-15T00:13:31.750Z,0.00
2017-09-15T00:14:31.746Z,0.00
2017-09-15T00:15:31.742Z,0.00
2017-09-15T00:16:31.740Z,0.00
2017-09-15T00:17:31.736Z,0.00
2017-09-15T00:18:31.733Z,0.00
2017-09-15T00:19:31.728Z,0.00
2017-09-15T00:20:31.728Z,0.00
2017-09-15T00:21:31.725Z,0.00
2017-09-15T00:22:31.723Z,0.00
2017-09-15T00:23:31.719Z,0.00
2017-09-15T00:24:31.716Z,0.00
2017-09-15T00:25:31.712Z,0.00
2017-09-15T00:26:31.708Z,0.00
2017-09-15T00:27:31.704Z,0.00
2017-09-15T00:28:31.697Z,0.00
2017-09-15T00:29:31.694Z,0.00
2017-09-15T00:30:31.690Z,0.00
2017-09-15T00:31:31.686Z,0.00
2017-09-15T00:32:31.684Z,0.00
2017-09-15T00:33:31.678Z,0.00
2017-09-15T00:34:31.677Z,0.00
2017-09-15T00:35:31.674Z,0.00
2017-09-15T00:36:31.672Z,0.00
2017-09-15T00:37:31.669Z,0.00
2017-09-15T00:38:31.666Z,0.00
2017-09-15T00:39:31.660Z,0.00
2017-09-15T00:40:31.657Z,0.00
2017-09-15T00:41:31.656Z,0.00
2017-09-15T00:42:31.650Z,0.00
2017-09-15T00:43:31.646Z,0.00
2017-09-15T00:44:31.639Z,0.00
2017-09-15T00:45:31.634Z,0.00
2017-09-15T00:46:31.631Z,0.00
2017-09-15T00:47:31.628Z,0.00
2017-09-15T00:48:31.628Z,0.00
2017-09-15T00:49:31.627Z,0.00
2017-09-15T00:50:31.621Z,0.00
2017-09-15T00:51:31.617Z,0.00
2017-09-15T00:52:31.608Z,0.00
2017-09-15T00:53:31.604Z,0.00
2017-09-15T00:54:31.607Z,0.00
2017-09-15T00:55:31.596Z,0.00
2017-09-15T00:56:31.592Z,0.00
2017-09-15T00:57:31.591Z,0.00
2017-09-15T00:58:31.585Z,0.00
2017-09-15T00:59:31.581Z,0.00
2017-09-15T01:00:31.581Z,0.00
2017-09-15T01:01:31.578Z,0.00
2017-09-15T01:02:31.574Z,0.00
2017-09-15T01:03:31.569Z,0.00
2017-09-15T01:04:31.566Z,0.00
2017-09-15T01:05:31.563Z,0.00
2017-09-15T01:06:31.559Z,0.00
2017-09-15T01:07:31.555Z,0.00
2017-09-15T01:08:31.546Z,0.00
2017-09-15T01:09:31.544Z,0.00
2017-09-15T01:10:31.539Z,0.00
2017-09-15T01:11:31.537Z,0.00
2017-09-15T01:12:31.532Z,0.00
2017-09-15T01:13:31.529Z,0.00
2017-09-15T01:14:31.525Z,0.00
2017-09-15T01:15:31.519Z,0.00
2017-09-15T01:16:31.519Z,0.00
2017-09-15T01:17:31.517Z,0.00
2017-09-15T01:18:31.513Z,0.00
2017-09-15T01:19:31.510Z,0.00
2017-09-15T01:20:31.506Z,0.00
2017-09-15T01:21:31.502Z,0.00
2017-09-15T01:22:31.499Z,0.00
2017-09-15T01:23:31.493Z,0.00
2017-09-15T01:24:31.485Z,0.00
2017-09-15T01:25:31.482Z,0.00
2017-09-15T01:26:31.478Z,0.00
2017-09-15T01:27:31.475Z,0.00
2017-09-15T01:28:31.472Z,0.00
2017-09-15T01:29:31.471Z,0.00
2017-09-15T01:30:31.463Z,0.00
2017-09-15T01:31:31.458Z,0.00
2017-09-15T01:32:31.458Z,0.00
2017-09-15T01:33:31.457Z,0.00
2017-09-15T01:34:31.451Z,0.00
2017-09-15T01:35:31.447Z,0.00
2017-09-15T01:36:31.442Z,0.00
2017-09-15T01:37:31.440Z,0.00
2017-09-15T01:38:31.435Z,0.00
2017-09-15T01:39:31.434Z,0.00
2017-09-15T01:40:31.428Z,0.00
2017-09-15T01:41:31.419Z,0.00
2017-09-15T01:42:31.416Z,0.00
2017-09-15T01:43:31.410Z,0.00
2017-09-15T01:44:31.406Z,0.00
2017-09-15T01:45:31.403Z,0.00
2017-09-15T01:46:31.403Z,0.00
2017-09-15T01:47:31.394Z,0.00
2017-09-15T01:48:31.394Z,0.00
2017-09-15T01:49:31.390Z,0.00
2017-09-15T01:50:31.386Z,0.00
2017-09-15T01:51:31.380Z,0.00
2017-09-15T01:52:31.372Z,0.00
2017-09-15T01:53:31.368Z,0.00
2017-09-15T01:54:31.364Z,0.00
2017-09-15T01:55:31.359Z,0.00
2017-09-15T01:56:31.360Z,0.00
2017-09-15T01:57:31.355Z,0.00
2017-09-15T01:58:31.353Z,0.00
2017-09-15T01:59:31.346Z,0.00
2017-09-15T02:00:31.341Z,0.00
2017-09-15T02:01:31.336Z,0.00
2017-09-15T02:02:31.332Z,0.00
2017-09-15T02:03:31.328Z,0.00
2017-09-15T02:04:31.320Z,0.00
2017-09-15T02:05:31.315Z,0.00
2017-09-15T02:06:31.312Z,0.00
2017-09-15T02:07:31.305Z,0.00
2017-09-15T02:08:31.302Z,0.00
2017-09-15T02:09:31.297Z,0.00
2017-09-15T02:10:31.294Z,0.00
2017-09-15T02:11:31.325Z,0.00
2017-09-15T02:12:31.287Z,0.00
2017-09-15T02:13:31.285Z,0.00
2017-09-15T02:14:31.280Z,0.00
2017-09-15T02:15:31.275Z,0.00
2017-09-15T02:16:31.270Z,0.00
2017-09-15T02:17:31.266Z,0.00
2017-09-15T02:18:31.261Z,0.00
2017-09-15T02:19:31.258Z,0.00
2017-09-15T02:20:31.248Z,0.00
2017-09-15T02:21:31.244Z,0.00
2017-09-15T02:22:31.242Z,0.00
2017-09-15T02:23:31.237Z,0.00
2017-09-15T02:24:31.230Z,0.00
2017-09-15T02:25:31.226Z,0.00
2017-09-15T02:26:31.222Z,0.00
2017-09-15T02:27:31.217Z,0.00
2017-09-15T02:28:31.217Z,0.00
2017-09-15T02:29:31.213Z,0.00
2017-09-15T02:30:31.209Z,0.00
2017-09-15T02:31:31.203Z,0.00
2017-09-15T02:32:31.200Z,0.00
2017-09-15T02:33:31.194Z,0.00
2017-09-15T02:34:31.194Z,0.00
2017-09-15T02:35:31.188Z,0.00
2017-09-15T02:36:31.176Z,0.00
2017-09-15T02:37:31.174Z,0.00
2017-09-15T02:38:31.168Z,0.00
2017-09-15T02:39:31.162Z,0.00
2017-09-15T02:40:31.159Z,0.00
2017-09-15T02:41:31.162Z,0.00
2017-09-15T02:42:31.150Z,0.00
2017-09-15T02:43:31.144Z,0.00
2017-09-15T02:44:31.145Z,0.00
2017-09-15T02:45:31.149Z,0.00
2017-09-15T02:46:31.136Z,0.00
2017-09-15T02:47:31.130Z,0.00
2017-09-15T02:48:31.125Z,0.00
2017-09-15T02:49:31.122Z,0.00
2017-09-15T02:50:31.116Z,0.00
2017-09-15T02:51:31.112Z,0.00
2017-09-15T02:52:31.104Z,0.00
2017-09-15T02:53:31.100Z,0.00
2017-09-15T02:54:31.094Z,0.00
2017-09-15T02:55:31.089Z,0.00
2017-09-15T02:56:31.089Z,0.00
2017-09-15T02:57:31.084Z,0.00
2017-09-15T02:58:31.081Z,0.00
2017-09-15T02:59:31.074Z,0.00
2017-09-15T03:00:31.067Z,0.00
2017-09-15T03:01:31.061Z,0.00
2017-09-15T03:02:31.058Z,0.00
2017-09-15T03:03:31.053Z,0.00
2017-09-15T03:04:31.049Z,0.00
2017-09-15T03:05:31.043Z,0.00
2017-09-15T03:06:31.061Z,0.00
2017-09-15T03:07:31.034Z,0.00
2017-09-15T03:08:31.034Z,0.00
2017-09-15T03:09:31.032Z,0.00
2017-09-15T03:10:31.025Z,0.00
2017-09-15T03:11:31.020Z,0.00
2017-09-15T03:12:31.017Z,0.00
2017-09-15T03:13:31.011Z,0.00
2017-09-15T03:14:31.008Z,0.00
2017-09-15T03:15:31.002Z,0.00
2017-09-15T03:16:30.994Z,0.00
2017-09-15T03:17:30.989Z,0.00
2017-09-15T03:18:30.987Z,0.00
2017-09-15T03:19:30.981Z,0.00
2017-09-15T03:20:30.976Z,0.00
2017-09-15T03:21:30.975Z,0.00
2017-09-15T03:22:30.968Z,0.00
2017-09-15T03:23:30.965Z,0.00
2017-09-15T03:24:30.964Z,0.00
2017-09-15T03:25:30.959Z,0.00
2017-09-15T03:26:30.956Z,0.00
2017-09-15T03:27:30.950Z,0.00
2017-09-15T03:28:30.947Z,0.00
2017-09-15T03:29:30.942Z,0.00
2017-09-15T03:30:30.940Z,0.00
2017-09-15T03:31:30.934Z,0.00
2017-09-15T03:32:30.925Z,0.00
2017-09-15T03:33:30.922Z,0.00
2017-09-15T03:34:30.919Z,0.00
2017-09-15T03:35:30.912Z,0.00
2017-09-15T03:36:30.909Z,0.00
2017-09-15T03:37:30.906Z,0.00
2017-09-15T03:38:30.901Z,0.00
2017-09-15T03:39:30.900Z,0.00
2017-09-15T03:40:30.897Z,0.00
2017-09-15T03:41:30.893Z,0.00
2017-09-15T03:42:30.890Z,0.00
2017-09-15T03:43:30.885Z,0.00
2017-09-15T03:44:30.880Z,0.00
2017-09-15T03:45:30.876Z,0.00
2017-09-15T03:46:30.873Z,0.00
2017-09-15T03:47:30.869Z,0.00
2017-09-15T03:48:30.860Z,0.00
2017-09-15T03:49:30.857Z,0.00
2017-09-15T03:50:30.853Z,0.00
2017-09-15T03:51:30.850Z,0.00
2017-09-15T03:52:30.844Z,0.00
2017-09-15T03:53:30.841Z,0.00
2017-09-15T03:54:30.836Z,0.00
2017-09-15T03:55:30.831Z,0.00
2017-09-15T03:56:30.833Z,0.00
2017-09-15T03:57:30.829Z,0.00
2017-09-15T03:58:30.824Z,0.00
2017-09-15T03:59:30.821Z,0.00
2017-09-15T04:00:30.812Z,0.00
2017-09-15T04:01:30.808Z,0.00
2017-09-15T04:02:30.805Z,0.00
2017-09-15T04:03:30.799Z,0.00
2017-09-15T04:04:30.799Z,0.00
2017-09-15T04:05:30.802Z,0.00
2017-09-15T04:06:30.794Z,0.00
2017-09-15T04:07:30.788Z,0.00
2017-09-15T04:08:30.784Z,0.00
2017-09-15T04:09:30.780Z,0.00
2017-09-15T04:10:30.778Z,0.00
2017-09-15T04:11:30.771Z,0.00
2017-09-15T04:12:30.763Z,0.00
2017-09-15T04:13:30.761Z,0.00
2017-09-15T04:14:30.756Z,0.00
2017-09-15T04:15:30.753Z,0.00
2017-09-15T04:16:30.748Z,0.00
2017-09-15T04:17:30.744Z,0.00
2017-09-15T04:18:30.741Z,0.00
2017-09-15T04:19:30.736Z,0.00
2017-09-15T04:20:30.737Z,0.00
2017-09-15T04:21:30.733Z,0.00
2017-09-15T04:22:30.727Z,0.00
2017-09-15T04:23:30.724Z,0.00
2017-09-15T04:24:30.720Z,0.00
2017-09-15T04:25:30.715Z,0.00
2017-09-15T04:26:30.712Z,0.00
2017-09-15T04:27:30.708Z,0.00
2017-09-15T04:28:30.699Z,0.00
2017-09-15T04:29:30.697Z,0.00
2017-09-15T04:30:30.692Z,0.00
2017-09-15T04:31:30.687Z,0.00
2017-09-15T04:32:30.685Z,0.00
2017-09-15T04:33:30.679Z,0.00
2017-09-15T04:34:30.677Z,0.00
2017-09-15T04:35:30.673Z,0.00
2017-09-15T04:36:30.673Z,0.00
2017-09-15T04:37:30.667Z,0.00
2017-09-15T04:38:30.664Z,0.00
2017-09-15T04:39:30.661Z,0.00
2017-09-15T04:40:30.657Z,0.00
2017-09-15T04:41:30.652Z,4.00
2017-09-15T04:42:30.648Z,4.00
2017-09-15T04:43:30.643Z,0.00
2017-09-15T04:44:30.635Z,4.00
2017-09-15T04:45:30.638Z,4.00
2017-09-15T04:46:30.628Z,4.00
2017-09-15T04:47:30.622Z,4.00
2017-09-15T04:48:30.618Z,4.00
2017-09-15T04:49:30.615Z,8.00
2017-09-15T04:50:30.621Z,8.00
2017-09-15T04:51:30.607Z,8.00
2017-09-15T04:52:30.607Z,12.00
2017-09-15T04:53:30.604Z,12.00
2017-09-15T04:54:30.598Z,12.00
2017-09-15T04:55:30.596Z,16.00
2017-09-15T04:56:30.592Z,16.00
2017-09-15T04:57:30.588Z,20.00
2017-09-15T04:58:30.583Z,24.00
2017-09-15T04:59:30.578Z,24.00
2017-09-15T05:00:30.570Z,28.00
2017-09-15T05:01:30.573Z,36.00
2017-09-15T05:02:30.563Z,36.00
2017-09-15T05:03:30.558Z,44.00
2017-09-15T05:04:30.554Z,48.00
2017-09-15T05:05:30.550Z,52.00
2017-09-15T05:06:30.547Z,56.00
2017-09-15T05:07:30.542Z,60.00
2017-09-15T05:08:30.542Z,72.00
2017-09-15T05:09:30.543Z,76.00
2017-09-15T05:10:30.535Z,84.00
2017-09-15T05:11:30.530Z,88.00
2017-09-15T05:12:30.527Z,100.00
2017-09-15T05:13:30.522Z,108.00
2017-09-15T05:14:30.519Z,120.00
2017-09-15T05:15:30.513Z,144.00
2017-09-15T05:16:30.506Z,156.00
2017-09-15T05:17:30.502Z,168.00
2017-09-15T05:18:30.499Z,172.00
2017-09-15T05:19:30.496Z,172.00
2017-09-15T05:20:30.489Z,172.00
2017-09-15T05:21:30.486Z,168.00
2017-09-15T05:22:30.482Z,180.00
2017-09-15T05:23:30.477Z,192.00
2017-09-15T05:24:30.477Z,208.00
2017-09-15T05:25:30.473Z,228.00
2017-09-15T05:26:30.469Z,252.00
2017-09-15T05:27:30.465Z,276.00
2017-09-15T05:28:30.460Z,296.00
2017-09-15T05:29:30.456Z,316.00
2017-09-15T05:30:30.453Z,332.00
2017-09-15T05:31:30.451Z,352.00
2017-09-15T05:32:30.442Z,364.00
2017-09-15T05:33:30.437Z,384.00
2017-09-15T05:34:30.434Z,404.00
2017-09-15T05:35:30.429Z,424.00
2017-09-15T05:36:30.429Z,448.00
2017-09-15T05:37:30.422Z,464.00
2017-09-15T05:38:30.417Z,484.00
2017-09-15T05:39:30.413Z,504.00
2017-09-15T05:40:30.413Z,504.00
2017-09-15T05:41:30.410Z,536.00
2017-09-15T05:42:30.406Z,568.00
2017-09-15T05:43:30.402Z,608.00
2017-09-15T05:44:30.398Z,636.00
2017-09-15T05:45:30.402Z,644.00
2017-09-15T05:46:30.394Z,664.00
2017-09-15T05:47:30.385Z,752.00
2017-09-15T05:48:30.379Z,904.00
2017-09-15T05:49:30.373Z,1048.00
2017-09-15T05:50:30.370Z,1192.00
2017-09-15T05:51:30.365Z,1348.00
2017-09-15T05:52:30.363Z,1440.00
2017-09-15T05:53:30.359Z,1492.00
2017-09-15T05:54:30.355Z,1448.00
2017-09-15T05:55:30.350Z,1420.00
2017-09-15T05:56:30.351Z,1432.00
2017-09-15T05:57:30.348Z,1456.00
2017-09-15T05:58:30.345Z,1496.00
2017-09-15T05:59:30.340Z,1480.00
2017-09-15T06:00:30.337Z,1472.00
2017-09-15T06:01:30.332Z,1632.00
2017-09-15T06:02:30.328Z,1728.00
2017-09-15T06:03:30.326Z,1672.00
2017-09-15T06:04:30.318Z,1624.00
2017-09-15T06:05:30.319Z,1648.00
2017-09-15T06:06:30.311Z,1736.00
2017-09-15T06:07:30.307Z,1792.00
2017-09-15T06:08:30.307Z,1940.00
2017-09-15T06:09:30.303Z,1972.00
2017-09-15T06:10:30.301Z,1920.00
2017-09-15T06:11:30.296Z,1832.00
2017-09-15T06:12:30.290Z,1896.00
2017-09-15T06:13:30.288Z,1876.00
2017-09-15T06:14:30.282Z,1844.00
2017-09-15T06:15:30.279Z,2000.00
2017-09-15T06:16:30.275Z,2024.00
2017-09-15T06:17:30.273Z,1964.00
2017-09-15T06:18:30.270Z,1720.00
2017-09-15T06:19:30.265Z,1496.00
2017-09-15T06:20:30.266Z,1292.00
2017-09-15T06:21:30.264Z,1192.00
2017-09-15T06:22:30.264Z,1360.00
2017-09-15T06:23:30.257Z,1344.00
2017-09-15T06:24:30.253Z,1188.00
2017-09-15T06:25:30.250Z,1048.00
2017-09-15T06:26:30.247Z,968.00
2017-09-15T06:27:30.243Z,840.00
2017-09-15T06:28:30.236Z,768.00
2017-09-15T06:29:30.233Z,732.00
2017-09-15T06:30:30.230Z,740.00
2017-09-15T06:31:30.225Z,820.00
2017-09-15T06:32:30.221Z,916.00
2017-09-15T06:33:30.218Z,888.00
2017-09-15T06:34:30.223Z,976.00
2017-09-15T06:35:30.214Z,868.00
2017-09-15T06:36:30.214Z,680.00
2017-09-15T06:37:30.210Z,712.00
2017-09-15T06:38:30.206Z,748.00
2017-09-15T06:39:30.202Z,764.00
2017-09-15T06:40:30.198Z,788.00
2017-09-15T06:41:30.197Z,768.00
2017-09-15T06:42:30.194Z,712.00
2017-09-15T06:43:30.190Z,828.00
2017-09-15T06:44:30.182Z,956.00
2017-09-15T06:45:30.178Z,844.00
2017-09-15T06:46:30.176Z,836.00
2017-09-15T06:47:30.170Z,784.00
2017-09-15T06:48:30.168Z,888.00
2017-09-15T06:49:30.165Z,932.00
2017-09-15T06:50:30.163Z,1000.00
2017-09-15T06:51:30.158Z,1248.00
2017-09-15T06:52:30.159Z,1516.00
2017-09-15T06:53:30.154Z,1716.00
2017-09-15T06:54:30.153Z,2020.00
2017-09-15T06:55:30.148Z,2464.00
2017-09-15T06:56:30.144Z,2208.00
2017-09-15T06:57:30.180Z,1608.00
2017-09-15T06:58:30.138Z,1672.00
2017-09-15T06:59:30.134Z,1548.00
2017-09-15T07:00:30.126Z,1644.00
2017-09-15T07:01:30.123Z,1752.00
2017-09-15T07:02:30.121Z,1504.00
2017-09-15T07:03:30.117Z,1392.00
2017-09-15T07:04:30.113Z,1324.00
2017-09-15T07:05:30.111Z,1284.00
2017-09-15T07:06:30.108Z,1312.00
2017-09-15T07:07:30.102Z,1380.00
2017-09-15T07:08:30.106Z,1784.00
2017-09-15T07:09:30.101Z,2040.00
2017-09-15T07:10:30.098Z,2272.00
2017-09-15T07:11:30.093Z,2668.00
2017-09-15T07:12:30.087Z,3016.00
2017-09-15T07:13:30.084Z,3352.00
2017-09-15T07:14:30.081Z,2804.00
2017-09-15T07:15:30.077Z,2516.00
2017-09-15T07:16:30.080Z,2148.00
2017-09-15T07:17:30.074Z,1996.00
2017-09-15T07:18:30.071Z,2272.00
2017-09-15T07:19:30.067Z,2040.00
2017-09-15T07:20:30.068Z,1688.00
2017-09-15T07:21:30.063Z,1564.00
2017-09-15T07:22:30.059Z,1664.00
2017-09-15T07:23:30.057Z,2028.00
2017-09-15T07:24:30.058Z,2260.00
2017-09-15T07:25:30.046Z,2052.00
2017-09-15T07:26:30.042Z,1828.00
2017-09-15T07:27:30.038Z,1788.00
2017-09-15T07:28:30.036Z,2180.00
2017-09-15T07:29:30.036Z,2496.00
2017-09-15T07:30:30.031Z,2504.00
2017-09-15T07:31:30.026Z,2456.00
2017-09-15T07:32:30.026Z,2652.00
2017-09-15T07:33:30.022Z,3316.00
2017-09-15T07:34:30.020Z,3572.00
2017-09-15T07:35:30.016Z,3108.00
2017-09-15T07:36:30.014Z,3000.00
2017-09-15T07:37:30.010Z,2796.00
2017-09-15T07:38:30.010Z,2760.00
2017-09-15T07:39:30.009Z,2636.00
2017-09-15T07:40:29.997Z,3092.00
2017-09-15T07:41:29.995Z,2964.00
2017-09-15T07:42:29.991Z,3168.00
2017-09-15T07:43:29.989Z,3316.00
2017-09-15T07:44:29.986Z,3096.00
2017-09-15T07:45:29.982Z,3016.00
2017-09-15T07:46:29.980Z,2556.00
2017-09-15T07:47:29.976Z,1752.00
2017-09-15T07:48:29.978Z,1480.00
2017-09-15T07:49:29.977Z,1644.00
2017-09-15T07:50:29.973Z,1576.00
2017-09-15T07:51:29.971Z,1556.00
2017-09-15T07:52:29.967Z,1208.00
2017-09-15T07:53:29.965Z,1244.00
2017-09-15T07:54:29.962Z,1992.00
2017-09-15T07:55:29.959Z,2488.00
2017-09-15T07:56:29.952Z,2520.00
2017-09-15T07:57:29.950Z,2528.00
2017-09-15T07:58:29.946Z,3752.00
2017-09-15T07:59:29.944Z,3700.00
2017-09-15T08:00:29.941Z,2640.00
2017-09-15T08:01:29.938Z,2108.00
2017-09-15T08:02:29.936Z,1804.00
2017-09-15T08:03:29.932Z,1352.00
2017-09-15T08:04:29.933Z,1724.00
2017-09-15T08:05:29.932Z,1248.00
2017-09-15T08:06:29.929Z,1256.00
2017-09-15T08:07:29.926Z,1528.00
2017-09-15T08:08:29.924Z,2168.00
2017-09-15T08:09:29.921Z,2808.00
2017-09-15T08:10:29.918Z,3820.00
2017-09-15T08:11:29.916Z,4276.00
2017-09-15T08:12:29.908Z,4948.00
2017-09-15T08:13:29.906Z,5528.00
2017-09-15T08:14:29.904Z,6164.00
2017-09-15T08:15:29.899Z,6268.00
2017-09-15T08:16:29.901Z,6776.00
2017-09-15T08:17:29.900Z,6108.00
2017-09-15T08:18:29.895Z,6248.00
2017-09-15T08:19:29.893Z,6988.00
2017-09-15T08:20:29.886Z,7572.00
2017-09-15T08:21:29.885Z,9308.00
2017-09-15T08:22:29.882Z,9284.00
2017-09-15T08:23:29.880Z,8040.00
2017-09-15T08:24:29.877Z,6876.00
2017-09-15T08:25:29.876Z,10228.00
2017-09-15T08:26:29.873Z,12656.00
2017-09-15T08:27:29.871Z,13864.00
2017-09-15T08:28:29.874Z,11488.00
2017-09-15T08:29:29.872Z,10968.00
2017-09-15T08:30:29.871Z,8860.00
2017-09-15T08:31:29.868Z,4708.00
2017-09-15T08:32:29.872Z,4760.00
2017-09-15T08:33:29.866Z,5764.00
2017-09-15T08:34:29.868Z,5240.00
2017-09-15T08:35:29.941Z,3608.00
2017-09-15T08:36:29.871Z,4204.00
2017-09-15T08:37:29.857Z,6124.00
2017-09-15T08:38:29.906Z,5572.00
2017-09-15T08:39:29.886Z,8244.00
2017-09-15T08:40:29.853Z,7832.00
2017-09-15T08:41:29.852Z,5772.00
2017-09-15T08:42:29.852Z,4688.00
2017-09-15T08:43:29.853Z,4032.00
2017-09-15T08:44:29.853Z,3460.00
2017-09-15T08:45:29.853Z,5128.00
2017-09-15T08:46:29.853Z,5400.00
2017-09-15T08:47:29.852Z,4496.00
2017-09-15T08:48:29.853Z,3516.00
2017-09-15T08:49:29.848Z,3384.00
2017-09-15T08:50:29.849Z,4516.00
2017-09-15T08:51:29.847Z,3808.00
2017-09-15T08:52:29.842Z,2948.00
2017-09-15T08:53:29.841Z,3552.00
2017-09-15T08:54:29.841Z,4352.00
2017-09-15T08:55:29.839Z,4244.00
2017-09-15T08:56:29.838Z,4124.00
2017-09-15T08:57:29.837Z,5096.00
2017-09-15T08:58:29.836Z,11804.00
2017-09-15T08:59:29.835Z,11980.00
2017-09-15T09:00:29.839Z,10104.00
2017-09-15T09:01:29.837Z,10684.00
2017-09-15T09:02:29.838Z,12580.00
2017-09-15T09:03:29.835Z,13276.00
2017-09-15T09:04:29.834Z,13308.00
2017-09-15T09:05:29.834Z,11152.00
2017-09-15T09:06:29.832Z,8660.00
2017-09-15T09:07:29.834Z,7348.00
2017-09-15T09:08:29.827Z,7140.00
2017-09-15T09:09:29.831Z,7180.00
2017-09-15T09:10:29.827Z,6792.00
2017-09-15T09:11:29.825Z,6572.00
2017-09-15T09:12:29.824Z,6192.00
2017-09-15T09:13:29.824Z,6004.00
2017-09-15T09:14:29.825Z,6132.00
2017-09-15T09:15:29.823Z,6588.00
2017-09-15T09:16:29.826Z,6956.00
2017-09-15T09:17:29.826Z,6700.00
2017-09-15T09:18:29.826Z,6376.00
2017-09-15T09:19:29.823Z,6372.00
2017-09-15T09:20:29.820Z,6568.00
2017-09-15T09:21:29.821Z,6304.00
2017-09-15T09:22:29.820Z,5900.00
2017-09-15T09:23:29.818Z,6148.00
2017-09-15T09:24:29.822Z,5840.00
2017-09-15T09:25:29.820Z,5736.00
2017-09-15T09:26:29.822Z,5944.00
2017-09-15T09:27:29.820Z,6880.00
2017-09-15T09:28:29.819Z,8060.00
2017-09-15T09:29:29.818Z,9032.00
2017-09-15T09:30:29.822Z,10096.00
2017-09-15T09:31:29.816Z,9856.00
2017-09-15T09:32:29.817Z,9012.00
2017-09-15T09:33:29.815Z,9680.00
2017-09-15T09:34:29.811Z,10020.00
2017-09-15T09:35:29.810Z,10088.00
2017-09-15T09:36:29.808Z,11916.00
2017-09-15T09:37:29.808Z,13784.00
2017-09-15T09:38:29.835Z,14324.00
2017-09-15T09:39:29.806Z,15860.00
2017-09-15T09:40:29.809Z,19040.00
2017-09-15T09:41:29.813Z,19520.00
2017-09-15T09:42:29.810Z,19136.00
2017-09-15T09:43:29.809Z,18144.00
2017-09-15T09:44:29.809Z,15928.00
2017-09-15T09:45:29.812Z,17120.00
2017-09-15T09:46:29.811Z,20864.00
2017-09-15T09:47:29.809Z,24896.00
2017-09-15T09:48:29.807Z,20448.00
2017-09-15T09:49:29.814Z,21824.00
2017-09-15T09:50:29.806Z,22112.00
2017-09-15T09:51:29.808Z,19520.00
2017-09-15T09:52:29.809Z,25568.00
2017-09-15T09:53:29.811Z,29280.00
2017-09-15T09:54:29.812Z,43520.00
2017-09-15T09:55:29.814Z,33696.00
2017-09-15T09:56:29.821Z,37760.00
2017-09-15T09:57:29.824Z,14744.00
2017-09-15T09:58:29.826Z,38496.00
2017-09-15T09:59:29.830Z,39872.00
2017-09-15T10:00:29.837Z,38944.00
2017-09-15T10:01:29.839Z,30208.00
2017-09-15T10:02:29.844Z,15768.00
2017-09-15T10:03:29.848Z,14144.00
2017-09-15T10:04:29.850Z,12588.00
2017-09-15T10:05:29.856Z,12536.00
2017-09-15T10:06:29.861Z,10728.00
2017-09-15T10:07:29.870Z,8572.00
2017-09-15T10:08:29.873Z,9616.00
2017-09-15T10:09:29.880Z,9932.00
2017-09-15T10:10:29.886Z,31296.00
2017-09-15T10:11:29.892Z,34976.00
2017-09-15T10:12:29.903Z,37440.00
2017-09-15T10:13:29.911Z,35840.00
2017-09-15T10:14:29.917Z,14392.00
2017-09-15T10:15:29.921Z,19936.00
2017-09-15T10:16:29.928Z,18816.00
2017-09-15T10:17:29.936Z,20448.00
2017-09-15T10:18:29.944Z,30656.00
2017-09-15T10:19:29.951Z,20352.00
2017-09-15T10:20:29.955Z,17984.00
2017-09-15T10:21:29.961Z,16832.00
2017-09-15T10:22:29.968Z,14584.00
2017-09-15T10:23:29.994Z,16384.00
2017-09-15T10:24:29.986Z,15056.00
2017-09-15T10:25:29.995Z,11580.00
2017-09-15T10:26:30.002Z,11140.00
2017-09-15T10:27:30.008Z,11204.00
2017-09-15T10:28:30.012Z,13344.00
2017-09-15T10:29:30.018Z,11552.00
2017-09-15T10:30:30.025Z,9192.00
2017-09-15T10:31:30.030Z,7408.00
2017-09-15T10:32:30.036Z,6720.00
2017-09-15T10:33:30.043Z,6316.00
2017-09-15T10:34:30.050Z,4708.00
2017-09-15T10:35:30.054Z,5000.00
2017-09-15T10:36:30.064Z,4568.00
2017-09-15T10:37:30.068Z,3400.00
2017-09-15T10:38:30.075Z,3044.00
2017-09-15T10:39:30.088Z,2960.00
2017-09-15T10:40:30.088Z,2676.00
2017-09-15T10:41:30.089Z,3116.00
2017-09-15T10:42:30.093Z,5052.00
2017-09-15T10:43:30.096Z,6084.00
2017-09-15T10:44:30.096Z,6540.00
2017-09-15T10:45:30.101Z,7644.00
2017-09-15T10:46:30.104Z,10120.00
2017-09-15T10:47:30.107Z,10824.00
2017-09-15T10:48:30.110Z,12028.00
2017-09-15T10:49:30.114Z,9608.00
2017-09-15T10:50:30.119Z,9008.00
2017-09-15T10:51:30.120Z,8648.00
2017-09-15T10:52:30.127Z,10560.00
2017-09-15T10:53:30.133Z,13624.00
2017-09-15T10:54:30.133Z,12632.00
2017-09-15T10:55:30.136Z,13132.00
2017-09-15T10:56:30.139Z,11988.00
2017-09-15T10:57:30.142Z,10548.00
2017-09-15T10:58:30.145Z,8516.00
2017-09-15T10:59:30.148Z,6800.00
2017-09-15T11:00:30.146Z,6620.00
2017-09-15T11:01:30.149Z,4700.00
2017-09-15T11:02:30.153Z,2940.00
2017-09-15T11:03:30.155Z,1912.00
2017-09-15T11:04:30.157Z,2272.00
2017-09-15T11:05:30.160Z,2872.00
2017-09-15T11:06:30.164Z,2812.00
2017-09-15T11:07:30.164Z,3288.00
2017-09-15T11:08:30.172Z,3172.00
2017-09-15T11:09:30.174Z,2488.00
2017-09-15T11:10:30.175Z,2080.00
2017-09-15T11:11:30.178Z,1876.00
2017-09-15T11:12:30.180Z,1760.00
2017-09-15T11:13:30.184Z,1660.00
2017-09-15T11:14:30.183Z,1672.00
2017-09-15T11:15:30.183Z,1684.00
2017-09-15T11:16:30.182Z,1708.00
2017-09-15T11:17:30.183Z,1732.00
2017-09-15T11:18:30.185Z,1908.00
2017-09-15T11:19:30.183Z,2012.00
2017-09-15T11:20:30.185Z,2192.00
2017-09-15T11:21:30.186Z,2376.00
2017-09-15T11:22:30.187Z,2756.00
2017-09-15T11:23:30.187Z,3112.00
2017-09-15T11:24:30.192Z,3412.00
2017-09-15T11:25:30.192Z,3568.00
2017-09-15T11:26:30.199Z,3472.00
2017-09-15T11:27:30.192Z,3496.00
2017-09-15T11:28:30.188Z,3688.00
2017-09-15T11:29:30.187Z,4392.00
2017-09-15T11:30:30.196Z,5088.00
2017-09-15T11:31:30.185Z,4940.00
2017-09-15T11:32:30.190Z,5200.00
2017-09-15T11:33:30.193Z,5756.00
2017-09-15T11:34:30.190Z,6548.00
2017-09-15T11:35:30.188Z,6496.00
2017-09-15T11:36:30.189Z,5992.00
2017-09-15T11:37:30.187Z,6152.00
2017-09-15T11:38:30.188Z,5444.00
2017-09-15T11:39:30.187Z,4352.00
2017-09-15T11:40:30.182Z,3672.00
2017-09-15T11:41:30.186Z,3572.00
2017-09-15T11:42:30.181Z,3724.00
2017-09-15T11:43:30.180Z,3992.00
2017-09-15T11:44:30.180Z,3728.00
2017-09-15T11:45:30.180Z,3168.00
2017-09-15T11:46:30.178Z,3068.00
2017-09-15T11:47:30.176Z,3188.00
2017-09-15T11:48:30.181Z,3424.00
2017-09-15T11:49:30.179Z,3880.00
2017-09-15T11:50:30.180Z,4308.00
2017-09-15T11:51:30.178Z,4752.00
2017-09-15T11:52:30.179Z,5436.00
2017-09-15T11:53:30.178Z,6284.00
2017-09-15T11:54:30.177Z,8584.00
2017-09-15T11:55:30.176Z,10300.00
2017-09-15T11:56:30.170Z,12124.00
2017-09-15T11:57:30.170Z,14424.00
2017-09-15T11:58:30.170Z,13064.00
2017-09-15T11:59:30.169Z,12488.00
2017-09-15T12:00:30.169Z,12092.00
2017-09-15T12:01:30.168Z,13304.00
2017-09-15T12:02:30.170Z,10744.00
2017-09-15T12:03:30.169Z,10012.00
2017-09-15T12:04:30.172Z,9868.00
2017-09-15T12:05:30.171Z,9824.00
2017-09-15T12:06:30.172Z,9264.00
2017-09-15T12:07:30.172Z,8772.00
2017-09-15T12:08:30.172Z,8812.00
2017-09-15T12:09:30.173Z,8880.00
2017-09-15T12:10:30.172Z,8688.00
2017-09-15T12:11:30.173Z,8776.00
2017-09-15T12:12:30.169Z,8912.00
2017-09-15T12:13:30.171Z,8380.00
2017-09-15T12:14:30.171Z,8184.00
2017-09-15T12:15:30.172Z,8412.00
2017-09-15T12:16:30.172Z,8288.00
2017-09-15T12:17:30.173Z,8584.00
2017-09-15T12:18:30.174Z,9296.00
2017-09-15T12:19:30.174Z,10288.00
2017-09-15T12:20:30.179Z,10800.00
2017-09-15T12:21:30.180Z,11556.00
2017-09-15T12:22:30.181Z,12300.00
2017-09-15T12:23:30.182Z,12452.00
2017-09-15T12:24:30.183Z,13696.00
2017-09-15T12:25:30.183Z,14500.00
2017-09-15T12:26:30.185Z,15004.00
2017-09-15T12:27:30.186Z,15312.00
2017-09-15T12:28:30.182Z,15460.00
2017-09-15T12:29:30.185Z,16224.00
2017-09-15T12:30:30.185Z,16256.00
2017-09-15T12:31:30.186Z,14640.00
2017-09-15T12:32:30.191Z,13664.00